sensor_id;sensor_type;location;lat;lon;timestamp;P1;durP1;ratioP1;P2;durP2;ratioP2
63536;SDS011;49686;51.880;5.632;2023-07-29T00:01:28;19.10;;;9.93;;
63536;SDS011;49686;51.880;5.632;2023-07-29T00:03:55;15.02;;;9.90;;
63536;SDS011;49686;51.880;5.632;2023-07-29T00:06:23;15.20;;;9.98;;
63536;SDS011;49686;51.880;5.632;2023-07-29T00:08:50;14.57;;;10.32;;
63536;SDS011;49686;51.880;5.632;2023-07-29T00:11:17;17.67;;;10.90;;
63536;SDS011;49686;51.880;5.632;2023-07-29T00:13:44;15.18;;;10.55;;
63536;SDS011;49686;51.880;5.632;2023-07-29T00:16:10;15.52;;;10.13;;
63536;SDS011;49686;51.880;5.632;2023-07-29T00:18:37;18.60;;;9.98;;
63536;SDS011;49686;51.880;5.632;2023-07-29T00:21:04;14.45;;;10.10;;
63536;SDS011;49686;51.880;5.632;2023-07-29T00:23:32;13.43;;;9.88;;
63536;SDS011;49686;51.880;5.632;2023-07-29T00:25:59;14.48;;;9.35;;
63536;SDS011;49686;51.880;5.632;2023-07-29T00:28:26;15.32;;;9.80;;
63536;SDS011;49686;51.880;5.632;2023-07-29T00:30:53;17.65;;;9.27;;
63536;SDS011;49686;51.880;5.632;2023-07-29T00:33:20;14.55;;;10.00;;
63536;SDS011;49686;51.880;5.632;2023-07-29T00:35:47;14.45;;;8.95;;
63536;SDS011;49686;51.880;5.632;2023-07-29T00:38:13;13.85;;;8.45;;
63536;SDS011;49686;51.880;5.632;2023-07-29T00:40:42;13.77;;;9.10;;
63536;SDS011;49686;51.880;5.632;2023-07-29T00:43:09;14.02;;;9.57;;
63536;SDS011;49686;51.880;5.632;2023-07-29T00:45:36;15.38;;;9.68;;
63536;SDS011;49686;51.880;5.632;2023-07-29T00:48:03;16.73;;;10.70;;
63536;SDS011;49686;51.880;5.632;2023-07-29T00:50:31;18.67;;;11.65;;
63536;SDS011;49686;51.880;5.632;2023-07-29T00:52:58;18.15;;;11.98;;
63536;SDS011;49686;51.880;5.632;2023-07-29T00:55:25;20.00;;;12.30;;
63536;SDS011;49686;51.880;5.632;2023-07-29T00:57:55;21.15;;;12.38;;
63536;SDS011;49686;51.880;5.632;2023-07-29T01:00:22;23.23;;;13.25;;
63536;SDS011;49686;51.880;5.632;2023-07-29T01:02:48;23.80;;;14.65;;
63536;SDS011;49686;51.880;5.632;2023-07-29T01:05:16;22.05;;;13.25;;
63536;SDS011;49686;51.880;5.632;2023-07-29T01:07:44;20.93;;;13.13;;
63536;SDS011;49686;51.880;5.632;2023-07-29T01:10:18;20.77;;;13.27;;
63536;SDS011;49686;51.880;5.632;2023-07-29T01:12:56;20.20;;;12.50;;
63536;SDS011;49686;51.880;5.632;2023-07-29T01:15:28;20.50;;;12.38;;
63536;SDS011;49686;51.880;5.632;2023-07-29T01:18:04;21.35;;;13.23;;
63536;SDS011;49686;51.880;5.632;2023-07-29T01:20:32;23.42;;;14.07;;
63536;SDS011;49686;51.880;5.632;2023-07-29T01:23:03;22.95;;;14.65;;
63536;SDS011;49686;51.880;5.632;2023-07-29T01:25:31;21.42;;;13.77;;
63536;SDS011;49686;51.880;5.632;2023-07-29T01:27:58;20.48;;;13.93;;
63536;SDS011;49686;51.880;5.632;2023-07-29T01:30:25;20.63;;;13.98;;
63536;SDS011;49686;51.880;5.632;2023-07-29T01:32:58;21.67;;;13.13;;
63536;SDS011;49686;51.880;5.632;2023-07-29T01:35:31;20.15;;;12.60;;
63536;SDS011;49686;51.880;5.632;2023-07-29T01:38:03;21.40;;;14.13;;
63536;SDS011;49686;51.880;5.632;2023-07-29T01:40:32;21.20;;;13.85;;
63536;SDS011;49686;51.880;5.632;2023-07-29T01:43:00;21.58;;;14.52;;
63536;SDS011;49686;51.880;5.632;2023-07-29T01:45:27;21.17;;;13.82;;
63536;SDS011;49686;51.880;5.632;2023-07-29T01:47:55;18.90;;;13.53;;
63536;SDS011;49686;51.880;5.632;2023-07-29T01:50:21;23.05;;;14.10;;
63536;SDS011;49686;51.880;5.632;2023-07-29T01:52:48;20.90;;;13.60;;
63536;SDS011;49686;51.880;5.632;2023-07-29T01:55:15;22.55;;;14.05;;
63536;SDS011;49686;51.880;5.632;2023-07-29T01:57:43;24.50;;;14.18;;
63536;SDS011;49686;51.880;5.632;2023-07-29T02:00:11;19.45;;;13.60;;
63536;SDS011;49686;51.880;5.632;2023-07-29T02:02:38;20.75;;;14.18;;
63536;SDS011;49686;51.880;5.632;2023-07-29T02:05:05;18.77;;;12.80;;
63536;SDS011;49686;51.880;5.632;2023-07-29T02:07:32;19.73;;;13.45;;
63536;SDS011;49686;51.880;5.632;2023-07-29T02:09:59;18.02;;;13.15;;
63536;SDS011;49686;51.880;5.632;2023-07-29T02:12:25;19.75;;;13.32;;
63536;SDS011;49686;51.880;5.632;2023-07-29T02:14:54;16.88;;;11.05;;
63536;SDS011;49686;51.880;5.632;2023-07-29T02:17:21;20.52;;;11.45;;
63536;SDS011;49686;51.880;5.632;2023-07-29T02:19:47;13.50;;;9.75;;
63536;SDS011;49686;51.880;5.632;2023-07-29T02:22:15;13.55;;;9.20;;
63536;SDS011;49686;51.880;5.632;2023-07-29T02:24:43;15.60;;;8.02;;
63536;SDS011;49686;51.880;5.632;2023-07-29T02:27:10;12.25;;;8.27;;
63536;SDS011;49686;51.880;5.632;2023-07-29T02:29:37;12.63;;;7.72;;
63536;SDS011;49686;51.880;5.632;2023-07-29T02:32:05;11.90;;;7.28;;
63536;SDS011;49686;51.880;5.632;2023-07-29T02:34:32;12.38;;;7.45;;
63536;SDS011;49686;51.880;5.632;2023-07-29T02:36:59;10.98;;;7.57;;
63536;SDS011;49686;51.880;5.632;2023-07-29T02:39:26;10.25;;;6.70;;
63536;SDS011;49686;51.880;5.632;2023-07-29T02:41:52;9.20;;;5.95;;
63536;SDS011;49686;51.880;5.632;2023-07-29T02:44:19;7.53;;;5.28;;
63536;SDS011;49686;51.880;5.632;2023-07-29T02:46:46;8.57;;;5.55;;
63536;SDS011;49686;51.880;5.632;2023-07-29T02:49:15;8.32;;;6.05;;
63536;SDS011;49686;51.880;5.632;2023-07-29T02:51:42;7.38;;;5.35;;
63536;SDS011;49686;51.880;5.632;2023-07-29T02:54:09;10.10;;;6.40;;
63536;SDS011;49686;51.880;5.632;2023-07-29T02:56:36;8.20;;;5.00;;
63536;SDS011;49686;51.880;5.632;2023-07-29T02:59:03;10.95;;;5.43;;
63536;SDS011;49686;51.880;5.632;2023-07-29T03:01:30;7.70;;;5.63;;
63536;SDS011;49686;51.880;5.632;2023-07-29T03:03:57;8.68;;;5.40;;
63536;SDS011;49686;51.880;5.632;2023-07-29T03:06:25;7.30;;;5.07;;
63536;SDS011;49686;51.880;5.632;2023-07-29T03:08:52;8.38;;;4.90;;
63536;SDS011;49686;51.880;5.632;2023-07-29T03:11:19;6.70;;;4.38;;
63536;SDS011;49686;51.880;5.632;2023-07-29T03:13:46;7.38;;;4.60;;
63536;SDS011;49686;51.880;5.632;2023-07-29T03:16:14;5.45;;;4.18;;
63536;SDS011;49686;51.880;5.632;2023-07-29T03:18:43;7.65;;;3.65;;
63536;SDS011;49686;51.880;5.632;2023-07-29T03:21:10;6.63;;;4.50;;
63536;SDS011;49686;51.880;5.632;2023-07-29T03:23:39;5.25;;;3.95;;
63536;SDS011;49686;51.880;5.632;2023-07-29T03:26:05;6.25;;;4.20;;
63536;SDS011;49686;51.880;5.632;2023-07-29T03:28:33;6.25;;;3.80;;
63536;SDS011;49686;51.880;5.632;2023-07-29T03:30:59;7.40;;;4.20;;
63536;SDS011;49686;51.880;5.632;2023-07-29T03:33:27;7.82;;;3.67;;
63536;SDS011;49686;51.880;5.632;2023-07-29T03:35:53;5.38;;;3.67;;
63536;SDS011;49686;51.880;5.632;2023-07-29T03:38:20;6.38;;;3.63;;
63536;SDS011;49686;51.880;5.632;2023-07-29T03:40:48;5.70;;;3.60;;
63536;SDS011;49686;51.880;5.632;2023-07-29T03:43:16;6.97;;;3.40;;
63536;SDS011;49686;51.880;5.632;2023-07-29T03:45:43;5.18;;;3.63;;
63536;SDS011;49686;51.880;5.632;2023-07-29T03:48:10;6.47;;;3.53;;
63536;SDS011;49686;51.880;5.632;2023-07-29T03:50:37;5.50;;;3.28;;
63536;SDS011;49686;51.880;5.632;2023-07-29T03:53:04;6.43;;;3.53;;
63536;SDS011;49686;51.880;5.632;2023-07-29T03:55:30;7.93;;;3.40;;
63536;SDS011;49686;51.880;5.632;2023-07-29T03:57:59;6.13;;;3.35;;
63536;SDS011;49686;51.880;5.632;2023-07-29T04:00:26;6.88;;;3.20;;
63536;SDS011;49686;51.880;5.632;2023-07-29T04:02:53;3.92;;;2.97;;
63536;SDS011;49686;51.880;5.632;2023-07-29T04:05:20;6.75;;;3.67;;
63536;SDS011;49686;51.880;5.632;2023-07-29T04:07:48;5.13;;;2.90;;
63536;SDS011;49686;51.880;5.632;2023-07-29T04:10:15;6.22;;;3.50;;
63536;SDS011;49686;51.880;5.632;2023-07-29T04:12:43;4.05;;;2.85;;
63536;SDS011;49686;51.880;5.632;2023-07-29T04:15:11;6.40;;;3.15;;
63536;SDS011;49686;51.880;5.632;2023-07-29T04:17:38;4.60;;;3.03;;
63536;SDS011;49686;51.880;5.632;2023-07-29T04:20:05;5.20;;;3.17;;
63536;SDS011;49686;51.880;5.632;2023-07-29T04:22:33;4.63;;;2.78;;
63536;SDS011;49686;51.880;5.632;2023-07-29T04:24:59;6.78;;;3.85;;
63536;SDS011;49686;51.880;5.632;2023-07-29T04:27:26;5.28;;;3.03;;
63536;SDS011;49686;51.880;5.632;2023-07-29T04:29:55;5.85;;;3.13;;
63536;SDS011;49686;51.880;5.632;2023-07-29T04:32:24;4.30;;;3.08;;
63536;SDS011;49686;51.880;5.632;2023-07-29T04:34:50;4.20;;;3.00;;
63536;SDS011;49686;51.880;5.632;2023-07-29T04:37:17;3.78;;;2.80;;
63536;SDS011;49686;51.880;5.632;2023-07-29T04:39:44;4.40;;;2.95;;
63536;SDS011;49686;51.880;5.632;2023-07-29T04:42:11;3.45;;;2.65;;
63536;SDS011;49686;51.880;5.632;2023-07-29T04:44:38;5.25;;;3.38;;
63536;SDS011;49686;51.880;5.632;2023-07-29T04:47:05;5.72;;;2.70;;
63536;SDS011;49686;51.880;5.632;2023-07-29T04:49:33;4.30;;;2.78;;
63536;SDS011;49686;51.880;5.632;2023-07-29T04:52:00;5.88;;;2.80;;
63536;SDS011;49686;51.880;5.632;2023-07-29T04:54:27;5.43;;;3.63;;
63536;SDS011;49686;51.880;5.632;2023-07-29T04:56:53;3.80;;;2.97;;
63536;SDS011;49686;51.880;5.632;2023-07-29T04:59:20;6.50;;;3.10;;
63536;SDS011;49686;51.880;5.632;2023-07-29T05:01:47;4.47;;;2.97;;
63536;SDS011;49686;51.880;5.632;2023-07-29T05:04:14;3.22;;;2.50;;
63536;SDS011;49686;51.880;5.632;2023-07-29T05:06:43;5.05;;;3.00;;
63536;SDS011;49686;51.880;5.632;2023-07-29T05:09:14;5.93;;;3.30;;
63536;SDS011;49686;51.880;5.632;2023-07-29T05:11:41;4.75;;;2.78;;
63536;SDS011;49686;51.880;5.632;2023-07-29T05:14:08;5.47;;;3.13;;
63536;SDS011;49686;51.880;5.632;2023-07-29T05:16:35;3.42;;;2.80;;
63536;SDS011;49686;51.880;5.632;2023-07-29T05:19:02;11.02;;;3.55;;
63536;SDS011;49686;51.880;5.632;2023-07-29T05:21:29;4.72;;;3.38;;
63536;SDS011;49686;51.880;5.632;2023-07-29T05:23:57;4.93;;;3.90;;
63536;SDS011;49686;51.880;5.632;2023-07-29T05:26:24;4.70;;;3.35;;
63536;SDS011;49686;51.880;5.632;2023-07-29T05:28:51;7.38;;;3.60;;
63536;SDS011;49686;51.880;5.632;2023-07-29T05:31:18;6.65;;;3.47;;
63536;SDS011;49686;51.880;5.632;2023-07-29T05:33:45;6.85;;;4.20;;
63536;SDS011;49686;51.880;5.632;2023-07-29T05:36:12;6.35;;;3.90;;
63536;SDS011;49686;51.880;5.632;2023-07-29T05:38:39;4.63;;;3.55;;
63536;SDS011;49686;51.880;5.632;2023-07-29T05:41:07;6.65;;;4.13;;
63536;SDS011;49686;51.880;5.632;2023-07-29T05:43:34;6.28;;;4.53;;
63536;SDS011;49686;51.880;5.632;2023-07-29T05:46:01;7.20;;;3.67;;
63536;SDS011;49686;51.880;5.632;2023-07-29T05:48:27;6.15;;;3.90;;
63536;SDS011;49686;51.880;5.632;2023-07-29T05:50:54;5.53;;;3.75;;
63536;SDS011;49686;51.880;5.632;2023-07-29T05:53:21;5.82;;;4.10;;
63536;SDS011;49686;51.880;5.632;2023-07-29T05:55:48;6.25;;;3.72;;
63536;SDS011;49686;51.880;5.632;2023-07-29T05:58:16;6.88;;;3.95;;
63536;SDS011;49686;51.880;5.632;2023-07-29T06:00:43;9.52;;;4.50;;
63536;SDS011;49686;51.880;5.632;2023-07-29T06:03:10;9.07;;;4.50;;
63536;SDS011;49686;51.880;5.632;2023-07-29T06:05:37;7.32;;;4.20;;
63536;SDS011;49686;51.880;5.632;2023-07-29T06:08:04;5.38;;;3.78;;
63536;SDS011;49686;51.880;5.632;2023-07-29T06:10:31;5.60;;;3.25;;
63536;SDS011;49686;51.880;5.632;2023-07-29T06:12:58;7.05;;;3.90;;
63536;SDS011;49686;51.880;5.632;2023-07-29T06:15:26;4.55;;;3.40;;
63536;SDS011;49686;51.880;5.632;2023-07-29T06:17:53;5.20;;;3.42;;
63536;SDS011;49686;51.880;5.632;2023-07-29T06:20:22;4.70;;;3.00;;
63536;SDS011;49686;51.880;5.632;2023-07-29T06:22:50;7.18;;;3.30;;
63536;SDS011;49686;51.880;5.632;2023-07-29T06:25:16;5.78;;;2.88;;
63536;SDS011;49686;51.880;5.632;2023-07-29T06:27:43;4.55;;;3.13;;
63536;SDS011;49686;51.880;5.632;2023-07-29T06:30:10;4.88;;;3.17;;
63536;SDS011;49686;51.880;5.632;2023-07-29T06:32:38;5.50;;;3.72;;
63536;SDS011;49686;51.880;5.632;2023-07-29T06:35:06;6.25;;;3.05;;
63536;SDS011;49686;51.880;5.632;2023-07-29T06:37:33;6.93;;;3.13;;
63536;SDS011;49686;51.880;5.632;2023-07-29T06:40:00;5.80;;;3.17;;
63536;SDS011;49686;51.880;5.632;2023-07-29T06:42:27;3.97;;;2.92;;
63536;SDS011;49686;51.880;5.632;2023-07-29T06:44:53;5.72;;;3.47;;
63536;SDS011;49686;51.880;5.632;2023-07-29T06:47:20;6.32;;;3.70;;
63536;SDS011;49686;51.880;5.632;2023-07-29T06:49:48;4.82;;;3.65;;
63536;SDS011;49686;51.880;5.632;2023-07-29T06:52:15;4.85;;;3.55;;
63536;SDS011;49686;51.880;5.632;2023-07-29T06:54:42;4.40;;;3.20;;
63536;SDS011;49686;51.880;5.632;2023-07-29T06:57:09;8.15;;;3.55;;
63536;SDS011;49686;51.880;5.632;2023-07-29T06:59:36;5.03;;;4.00;;
63536;SDS011;49686;51.880;5.632;2023-07-29T07:02:03;5.78;;;4.88;;
63536;SDS011;49686;51.880;5.632;2023-07-29T07:04:30;5.65;;;3.85;;
63536;SDS011;49686;51.880;5.632;2023-07-29T07:06:58;6.30;;;4.18;;
63536;SDS011;49686;51.880;5.632;2023-07-29T07:09:25;6.20;;;4.35;;
63536;SDS011;49686;51.880;5.632;2023-07-29T07:11:52;6.78;;;4.47;;
63536;SDS011;49686;51.880;5.632;2023-07-29T07:14:19;6.45;;;4.70;;
63536;SDS011;49686;51.880;5.632;2023-07-29T07:16:46;6.75;;;4.15;;
63536;SDS011;49686;51.880;5.632;2023-07-29T07:19:12;4.85;;;4.25;;
63536;SDS011;49686;51.880;5.632;2023-07-29T07:21:39;4.45;;;4.00;;
63536;SDS011;49686;51.880;5.632;2023-07-29T07:24:07;6.40;;;4.30;;
63536;SDS011;49686;51.880;5.632;2023-07-29T07:26:34;6.68;;;4.10;;
63536;SDS011;49686;51.880;5.632;2023-07-29T07:29:01;5.68;;;3.90;;
63536;SDS011;49686;51.880;5.632;2023-07-29T07:31:28;8.20;;;4.30;;
63536;SDS011;49686;51.880;5.632;2023-07-29T07:33:59;4.82;;;4.32;;
63536;SDS011;49686;51.880;5.632;2023-07-29T07:36:26;6.00;;;4.78;;
63536;SDS011;49686;51.880;5.632;2023-07-29T07:38:53;5.10;;;3.83;;
63536;SDS011;49686;51.880;5.632;2023-07-29T07:41:21;4.28;;;3.20;;
63536;SDS011;49686;51.880;5.632;2023-07-29T07:43:48;5.18;;;3.13;;
63536;SDS011;49686;51.880;5.632;2023-07-29T07:46:14;3.80;;;3.10;;
63536;SDS011;49686;51.880;5.632;2023-07-29T07:48:41;5.65;;;3.10;;
63536;SDS011;49686;51.880;5.632;2023-07-29T07:51:11;3.15;;;2.80;;
63536;SDS011;49686;51.880;5.632;2023-07-29T07:53:39;4.22;;;2.83;;
63536;SDS011;49686;51.880;5.632;2023-07-29T07:56:06;3.55;;;2.55;;
63536;SDS011;49686;51.880;5.632;2023-07-29T07:58:34;4.53;;;2.95;;
63536;SDS011;49686;51.880;5.632;2023-07-29T08:01:01;3.75;;;2.70;;
63536;SDS011;49686;51.880;5.632;2023-07-29T08:03:28;3.75;;;2.25;;
63536;SDS011;49686;51.880;5.632;2023-07-29T08:05:55;3.05;;;2.33;;
63536;SDS011;49686;51.880;5.632;2023-07-29T08:08:23;4.40;;;2.50;;
63536;SDS011;49686;51.880;5.632;2023-07-29T08:10:49;5.05;;;2.30;;
63536;SDS011;49686;51.880;5.632;2023-07-29T08:15:47;3.55;;;2.40;;
63536;SDS011;49686;51.880;5.632;2023-07-29T08:18:14;3.08;;;2.50;;
63536;SDS011;49686;51.880;5.632;2023-07-29T08:20:41;2.50;;;2.30;;
63536;SDS011;49686;51.880;5.632;2023-07-29T08:23:17;3.22;;;2.38;;
63536;SDS011;49686;51.880;5.632;2023-07-29T08:25:44;5.78;;;2.60;;
63536;SDS011;49686;51.880;5.632;2023-07-29T08:28:10;4.97;;;2.70;;
63536;SDS011;49686;51.880;5.632;2023-07-29T08:30:37;3.40;;;2.60;;
63536;SDS011;49686;51.880;5.632;2023-07-29T08:33:05;3.75;;;2.30;;
63536;SDS011;49686;51.880;5.632;2023-07-29T08:35:32;3.13;;;2.33;;
63536;SDS011;49686;51.880;5.632;2023-07-29T08:37:59;3.85;;;2.25;;
63536;SDS011;49686;51.880;5.632;2023-07-29T08:40:27;4.00;;;2.70;;
63536;SDS011;49686;51.880;5.632;2023-07-29T08:42:55;2.80;;;2.50;;
63536;SDS011;49686;51.880;5.632;2023-07-29T08:45:24;2.80;;;2.30;;
63536;SDS011;49686;51.880;5.632;2023-07-29T08:47:52;2.50;;;1.98;;
63536;SDS011;49686;51.880;5.632;2023-07-29T08:50:24;2.22;;;1.90;;
63536;SDS011;49686;51.880;5.632;2023-07-29T08:52:52;2.38;;;1.90;;
63536;SDS011;49686;51.880;5.632;2023-07-29T08:55:19;2.78;;;2.20;;
63536;SDS011;49686;51.880;5.632;2023-07-29T08:57:46;2.72;;;2.22;;
63536;SDS011;49686;51.880;5.632;2023-07-29T09:00:13;3.88;;;1.85;;
63536;SDS011;49686;51.880;5.632;2023-07-29T09:02:42;2.95;;;2.47;;
63536;SDS011;49686;51.880;5.632;2023-07-29T09:05:09;2.97;;;1.88;;
63536;SDS011;49686;51.880;5.632;2023-07-29T09:07:37;3.80;;;2.63;;
63536;SDS011;49686;51.880;5.632;2023-07-29T09:10:08;2.25;;;1.60;;
63536;SDS011;49686;51.880;5.632;2023-07-29T09:12:35;3.10;;;1.80;;
63536;SDS011;49686;51.880;5.632;2023-07-29T09:15:02;2.88;;;2.35;;
63536;SDS011;49686;51.880;5.632;2023-07-29T09:17:30;2.63;;;1.95;;
63536;SDS011;49686;51.880;5.632;2023-07-29T09:19:57;2.90;;;2.00;;
63536;SDS011;49686;51.880;5.632;2023-07-29T09:22:24;2.70;;;1.90;;
63536;SDS011;49686;51.880;5.632;2023-07-29T09:24:55;3.30;;;1.83;;
63536;SDS011;49686;51.880;5.632;2023-07-29T09:27:24;3.15;;;1.63;;
63536;SDS011;49686;51.880;5.632;2023-07-29T09:29:51;2.65;;;1.88;;
63536;SDS011;49686;51.880;5.632;2023-07-29T09:32:19;3.75;;;2.00;;
63536;SDS011;49686;51.880;5.632;2023-07-29T09:34:50;5.40;;;1.98;;
63536;SDS011;49686;51.880;5.632;2023-07-29T09:37:17;2.92;;;1.95;;
63536;SDS011;49686;51.880;5.632;2023-07-29T09:39:45;3.55;;;1.88;;
63536;SDS011;49686;51.880;5.632;2023-07-29T09:42:17;3.10;;;2.00;;
63536;SDS011;49686;51.880;5.632;2023-07-29T09:44:44;5.68;;;1.90;;
63536;SDS011;49686;51.880;5.632;2023-07-29T09:47:18;2.08;;;1.40;;
63536;SDS011;49686;51.880;5.632;2023-07-29T09:49:46;2.63;;;1.77;;
63536;SDS011;49686;51.880;5.632;2023-07-29T09:52:14;4.13;;;1.60;;
63536;SDS011;49686;51.880;5.632;2023-07-29T09:54:42;3.63;;;1.90;;
63536;SDS011;49686;51.880;5.632;2023-07-29T09:57:09;2.78;;;1.50;;
63536;SDS011;49686;51.880;5.632;2023-07-29T09:59:38;1.35;;;1.13;;
63536;SDS011;49686;51.880;5.632;2023-07-29T10:02:05;3.67;;;1.58;;
63536;SDS011;49686;51.880;5.632;2023-07-29T10:04:39;2.70;;;1.67;;
63536;SDS011;49686;51.880;5.632;2023-07-29T10:07:07;2.15;;;1.60;;
63536;SDS011;49686;51.880;5.632;2023-07-29T10:09:37;7.30;;;2.38;;
63536;SDS011;49686;51.880;5.632;2023-07-29T10:12:05;2.73;;;1.70;;
63536;SDS011;49686;51.880;5.632;2023-07-29T10:14:33;1.95;;;1.30;;
63536;SDS011;49686;51.880;5.632;2023-07-29T10:17:03;4.15;;;1.77;;
63536;SDS011;49686;51.880;5.632;2023-07-29T10:19:31;2.92;;;1.65;;
63536;SDS011;49686;51.880;5.632;2023-07-29T10:21:58;2.67;;;2.00;;
63536;SDS011;49686;51.880;5.632;2023-07-29T10:24:29;3.60;;;2.30;;
63536;SDS011;49686;51.880;5.632;2023-07-29T10:26:57;3.63;;;1.65;;
63536;SDS011;49686;51.880;5.632;2023-07-29T10:29:28;2.08;;;1.80;;
63536;SDS011;49686;51.880;5.632;2023-07-29T10:31:57;4.13;;;2.00;;
63536;SDS011;49686;51.880;5.632;2023-07-29T10:34:28;2.35;;;1.83;;
63536;SDS011;49686;51.880;5.632;2023-07-29T10:36:56;3.15;;;2.22;;
63536;SDS011;49686;51.880;5.632;2023-07-29T10:39:24;1.55;;;1.45;;
63536;SDS011;49686;51.880;5.632;2023-07-29T10:41:57;1.95;;;1.85;;
63536;SDS011;49686;51.880;5.632;2023-07-29T10:47:17;2.60;;;1.60;;
63536;SDS011;49686;51.880;5.632;2023-07-29T10:49:48;3.17;;;2.10;;
63536;SDS011;49686;51.880;5.632;2023-07-29T10:52:27;3.50;;;1.60;;
63536;SDS011;49686;51.880;5.632;2023-07-29T10:57:49;2.88;;;1.75;;
63536;SDS011;49686;51.880;5.632;2023-07-29T11:00:18;1.98;;;1.80;;
63536;SDS011;49686;51.880;5.632;2023-07-29T11:02:56;2.13;;;1.70;;
63536;SDS011;49686;51.880;5.632;2023-07-29T11:05:26;3.50;;;1.92;;
63536;SDS011;49686;51.880;5.632;2023-07-29T11:08:15;2.00;;;1.90;;
63536;SDS011;49686;51.880;5.632;2023-07-29T11:10:57;2.58;;;1.63;;
63536;SDS011;49686;51.880;5.632;2023-07-29T11:13:26;2.53;;;1.95;;
63536;SDS011;49686;51.880;5.632;2023-07-29T11:15:53;2.33;;;1.73;;
63536;SDS011;49686;51.880;5.632;2023-07-29T11:18:21;3.53;;;1.58;;
63536;SDS011;49686;51.880;5.632;2023-07-29T11:20:49;1.60;;;1.50;;
63536;SDS011;49686;51.880;5.632;2023-07-29T11:23:16;1.77;;;1.60;;
63536;SDS011;49686;51.880;5.632;2023-07-29T11:25:43;1.98;;;1.52;;
63536;SDS011;49686;51.880;5.632;2023-07-29T11:28:11;2.08;;;1.50;;
63536;SDS011;49686;51.880;5.632;2023-07-29T11:30:38;1.40;;;1.30;;
63536;SDS011;49686;51.880;5.632;2023-07-29T11:33:05;1.85;;;1.05;;
63536;SDS011;49686;51.880;5.632;2023-07-29T11:35:32;3.33;;;0.88;;
63536;SDS011;49686;51.880;5.632;2023-07-29T11:38:00;1.77;;;1.20;;
63536;SDS011;49686;51.880;5.632;2023-07-29T11:40:27;1.33;;;1.20;;
63536;SDS011;49686;51.880;5.632;2023-07-29T11:42:54;6.40;;;1.58;;
63536;SDS011;49686;51.880;5.632;2023-07-29T11:45:22;4.05;;;1.80;;
63536;SDS011;49686;51.880;5.632;2023-07-29T11:47:57;4.72;;;2.22;;
63536;SDS011;49686;51.880;5.632;2023-07-29T11:50:24;2.10;;;1.63;;
63536;SDS011;49686;51.880;5.632;2023-07-29T11:52:51;3.47;;;2.53;;
63536;SDS011;49686;51.880;5.632;2023-07-29T11:55:21;3.00;;;2.00;;
63536;SDS011;49686;51.880;5.632;2023-07-29T11:57:49;3.55;;;2.10;;
63536;SDS011;49686;51.880;5.632;2023-07-29T12:00:18;7.18;;;2.45;;
63536;SDS011;49686;51.880;5.632;2023-07-29T12:02:47;4.38;;;1.92;;
63536;SDS011;49686;51.880;5.632;2023-07-29T12:05:16;3.22;;;1.83;;
63536;SDS011;49686;51.880;5.632;2023-07-29T12:10:11;2.13;;;1.60;;
63536;SDS011;49686;51.880;5.632;2023-07-29T12:12:42;2.63;;;2.28;;
63536;SDS011;49686;51.880;5.632;2023-07-29T12:15:11;2.58;;;1.50;;
63536;SDS011;49686;51.880;5.632;2023-07-29T12:17:39;4.13;;;2.10;;
63536;SDS011;49686;51.880;5.632;2023-07-29T12:20:08;5.35;;;1.92;;
63536;SDS011;49686;51.880;5.632;2023-07-29T12:22:36;3.17;;;1.63;;
63536;SDS011;49686;51.880;5.632;2023-07-29T12:25:03;2.80;;;2.50;;
63536;SDS011;49686;51.880;5.632;2023-07-29T12:27:30;3.65;;;1.90;;
63536;SDS011;49686;51.880;5.632;2023-07-29T12:30:00;3.88;;;2.67;;
63536;SDS011;49686;51.880;5.632;2023-07-29T12:32:27;4.43;;;2.90;;
63536;SDS011;49686;51.880;5.632;2023-07-29T12:34:55;2.97;;;2.37;;
63536;SDS011;49686;51.880;5.632;2023-07-29T12:37:30;2.53;;;1.85;;
63536;SDS011;49686;51.880;5.632;2023-07-29T12:39:58;3.53;;;2.47;;
63536;SDS011;49686;51.880;5.632;2023-07-29T12:42:24;4.65;;;2.22;;
63536;SDS011;49686;51.880;5.632;2023-07-29T12:44:51;4.68;;;2.50;;
63536;SDS011;49686;51.880;5.632;2023-07-29T12:47:19;6.07;;;2.60;;
63536;SDS011;49686;51.880;5.632;2023-07-29T12:49:46;4.85;;;2.88;;
63536;SDS011;49686;51.880;5.632;2023-07-29T12:52:13;2.55;;;2.35;;
63536;SDS011;49686;51.880;5.632;2023-07-29T12:54:40;3.53;;;2.47;;
63536;SDS011;49686;51.880;5.632;2023-07-29T12:57:07;4.03;;;2.90;;
63536;SDS011;49686;51.880;5.632;2023-07-29T12:59:34;3.13;;;2.42;;
63536;SDS011;49686;51.880;5.632;2023-07-29T13:02:00;4.05;;;2.65;;
63536;SDS011;49686;51.880;5.632;2023-07-29T13:04:28;3.10;;;2.35;;
63536;SDS011;49686;51.880;5.632;2023-07-29T13:06:55;3.97;;;2.75;;
63536;SDS011;49686;51.880;5.632;2023-07-29T13:09:22;3.22;;;2.92;;
63536;SDS011;49686;51.880;5.632;2023-07-29T13:11:49;4.80;;;3.03;;
63536;SDS011;49686;51.880;5.632;2023-07-29T13:14:16;3.28;;;2.92;;
63536;SDS011;49686;51.880;5.632;2023-07-29T13:16:42;3.47;;;2.75;;
63536;SDS011;49686;51.880;5.632;2023-07-29T13:19:09;4.00;;;3.10;;
63536;SDS011;49686;51.880;5.632;2023-07-29T13:21:38;3.63;;;3.15;;
63536;SDS011;49686;51.880;5.632;2023-07-29T13:24:04;4.65;;;3.60;;
63536;SDS011;49686;51.880;5.632;2023-07-29T13:26:32;3.45;;;3.15;;
63536;SDS011;49686;51.880;5.632;2023-07-29T13:31:26;4.07;;;3.63;;
63536;SDS011;49686;51.880;5.632;2023-07-29T13:33:53;4.07;;;3.53;;
63536;SDS011;49686;51.880;5.632;2023-07-29T13:36:20;3.10;;;2.80;;
63536;SDS011;49686;51.880;5.632;2023-07-29T13:38:48;3.95;;;2.58;;
63536;SDS011;49686;51.880;5.632;2023-07-29T13:41:15;3.13;;;2.28;;
63536;SDS011;49686;51.880;5.632;2023-07-29T13:43:42;1.80;;;1.60;;
63536;SDS011;49686;51.880;5.632;2023-07-29T13:46:09;2.05;;;1.60;;
63536;SDS011;49686;51.880;5.632;2023-07-29T13:48:36;1.50;;;1.40;;
63536;SDS011;49686;51.880;5.632;2023-07-29T13:51:03;2.15;;;1.70;;
63536;SDS011;49686;51.880;5.632;2023-07-29T13:53:29;3.83;;;1.45;;
63536;SDS011;49686;51.880;5.632;2023-07-29T13:55:57;1.60;;;1.50;;
63536;SDS011;49686;51.880;5.632;2023-07-29T13:58:24;2.53;;;1.67;;
63536;SDS011;49686;51.880;5.632;2023-07-29T14:00:51;3.15;;;1.58;;
63536;SDS011;49686;51.880;5.632;2023-07-29T14:03:18;1.65;;;1.55;;
63536;SDS011;49686;51.880;5.632;2023-07-29T14:05:45;2.67;;;2.15;;
63536;SDS011;49686;51.880;5.632;2023-07-29T14:08:11;3.30;;;1.70;;
63536;SDS011;49686;51.880;5.632;2023-07-29T14:10:38;3.33;;;1.40;;
63536;SDS011;49686;51.880;5.632;2023-07-29T14:13:07;2.97;;;1.88;;
63536;SDS011;49686;51.880;5.632;2023-07-29T14:15:34;1.50;;;1.40;;
63536;SDS011;49686;51.880;5.632;2023-07-29T14:18:00;1.90;;;1.40;;
63536;SDS011;49686;51.880;5.632;2023-07-29T14:20:27;1.63;;;1.40;;
63536;SDS011;49686;51.880;5.632;2023-07-29T14:22:54;3.42;;;1.60;;
63536;SDS011;49686;51.880;5.632;2023-07-29T14:25:21;2.50;;;1.88;;
63536;SDS011;49686;51.880;5.632;2023-07-29T14:27:48;2.45;;;1.98;;
63536;SDS011;49686;51.880;5.632;2023-07-29T14:30:16;2.03;;;1.48;;
63536;SDS011;49686;51.880;5.632;2023-07-29T14:32:43;4.55;;;1.83;;
63536;SDS011;49686;51.880;5.632;2023-07-29T14:35:10;4.65;;;1.90;;
63536;SDS011;49686;51.880;5.632;2023-07-29T14:37:37;2.58;;;1.80;;
63536;SDS011;49686;51.880;5.632;2023-07-29T14:40:04;2.50;;;2.00;;
63536;SDS011;49686;51.880;5.632;2023-07-29T14:42:32;3.65;;;2.00;;
63536;SDS011;49686;51.880;5.632;2023-07-29T14:45:01;2.13;;;1.80;;
63536;SDS011;49686;51.880;5.632;2023-07-29T14:47:29;4.50;;;1.80;;
63536;SDS011;49686;51.880;5.632;2023-07-29T14:49:56;1.63;;;1.52;;
63536;SDS011;49686;51.880;5.632;2023-07-29T14:52:23;2.83;;;1.40;;
63536;SDS011;49686;51.880;5.632;2023-07-29T14:54:51;2.65;;;1.73;;
63536;SDS011;49686;51.880;5.632;2023-07-29T14:57:18;2.25;;;1.60;;
63536;SDS011;49686;51.880;5.632;2023-07-29T14:59:45;1.60;;;1.50;;